Ann Arbor, MI (48106)

11:44 AM EDT on August 30, 2015 (GMT -0400)
Ann Arbor Municipal | | Change Station
CLOSE
Current Station
Airport
Location: Ann Arbor,
Elevation: 837 ft
Nearby Weather Stations

Elev 837 ft 42.22 °N, 83.74 °W | Updated 51 minutes ago

Overcast
Overcast
72 °F
Feels Like 72 °F
N
4
Wind Variable Wind from SSE

Today
High -- | Low -- °F
--% Chance of Precip.
Yesterday
High -- | Low -- °F
Precip. -- in
6:57 AM 8:12 PM
Full, 99% visible
Pressure 30.07 in
Visibility 6.0 miles
Clouds Overcast 3000 ft
Dew Point 68 °F
Humidity 87%
Rainfall 0.03 in
Snow Depth Not available.
UV 2 out of 12
Pollen 7.80 out of 12
Air Quality Not available.
Flu Activity Not available.
METAR KARB 301453Z 15003KT 6SM BR OVC030 22/20 A3008 RMK AO2 SLP183 T02220200 50003
Pressure 30.07 in
Visibility 6.0 miles
Clouds Overcast 3000 ft
Dew Point 68 °F
Humidity 87%
Rainfall 0.03 in
Snow Depth Not available.
UV 2 out of 12
Pollen 7.80 out of 12
Air Quality Not available.
Flu Activity Not available.
METAR KARB 301453Z 15003KT 6SM BR OVC030 22/20 A3008 RMK AO2 SLP183 T02220200 50003

10-Day Weather Forecast

×

Almanac

Astronomy

Aug. 30, 2015 Rise Set
Actual Time
Civil Twilight
Nautical Twilight
Astronomical Twilight
Moon
Length of Visible Light
Length of Day
Tomorrow will be .
, % of the Moon is Illuminated

Today's Extremes

State Highs State Lows

Community

WunderPhotos

Upload Photos

1,850,997 photos uploaded!

WunderBlogs® & News

Nearby

Air Quality

  Air Quality AQ Index Pollutant
Not available.

Snow Depth

Station Depth Elevation

Earthquake Activity

City Distance Mag. Time & Date
Minimum magnitude displayed is 2.5.

Coastal Water Temperatures

Place Temperature

Stations

Nearby Weather Stations

Station Location Temp. Windchill Dew Point Humidity Wind Precip. Elev Updated Type